Time;durP1;ratioP1;P1;durP2;ratioP2;P2;SDS_P1;SDS_P2;PMS_P1;PMS_P2;Temp;Humidity;BMP_temperature;BMP_pressure;BME280_temperature;BME280_humidity;BME280_pressure;Samples;Min_cycle;Max_cycle;Signal;HPM_P1;HPM_P2
2022/05/18 00:00:40;;;;;;;3.13;1.50;;;12.80;99.90;;;;;;4172667;28;20043;-69
2022/05/18 00:02:42;;;;;;;2.47;1.40;;;12.80;99.90;;;;;;4172683;28;20439;-68
2022/05/18 00:04:44;;;;;;;4.33;1.37;;;12.80;99.90;;;;;;4171453;28;20693;-68
2022/05/18 00:06:45;;;;;;;2.30;1.40;;;12.80;99.90;;;;;;4173209;28;20029;-68
2022/05/18 00:08:46;;;;;;;1.93;1.60;;;12.70;99.90;;;;;;4172564;28;20028;-68
2022/05/18 00:10:49;;;;;;;2.17;1.73;;;12.70;99.90;;;;;;4173666;28;20090;-68
2022/05/18 00:12:50;;;;;;;3.27;1.67;;;12.70;99.90;;;;;;4171947;28;20037;-68
2022/05/18 00:14:53;;;;;;;2.10;1.90;;;12.70;99.90;;;;;;4172985;28;20041;-68
2022/05/18 00:16:54;;;;;;;6.63;1.80;;;12.70;99.90;;;;;;4172001;28;20029;-68
2022/05/18 00:18:55;;;;;;;4.70;3.57;;;12.70;99.90;;;;;;4171576;28;20048;-68
2022/05/18 00:20:58;;;;;;;4.53;3.63;;;12.70;99.90;;;;;;4171879;28;20075;-67
2022/05/18 00:23:02;;;;;;;5.40;3.47;;;12.70;99.90;;;;;;4172473;28;20079;-67
2022/05/18 00:25:03;;;;;;;4.30;2.40;;;12.70;99.90;;;;;;4171781;28;20025;-67
2022/05/18 00:27:05;;;;;;;5.13;1.83;;;12.70;99.90;;;;;;4172705;28;20033;-68
2022/05/18 00:29:06;;;;;;;1.87;1.67;;;12.70;99.90;;;;;;4171920;28;20806;-67
2022/05/18 00:31:07;;;;;;;3.33;1.50;;;12.70;99.90;;;;;;4172442;28;20045;-67
2022/05/18 00:33:10;;;;;;;1.50;1.40;;;12.70;99.90;;;;;;4172811;28;20087;-69
2022/05/18 00:35:12;;;;;;;2.10;1.20;;;12.70;99.90;;;;;;4172330;28;20021;-68
2022/05/18 00:37:13;;;;;;;1.50;1.40;;;12.70;99.90;;;;;;4172248;28;21149;-68
2022/05/18 00:39:15;;;;;;;4.13;1.63;;;12.70;99.90;;;;;;4171714;28;20769;-67
2022/05/18 00:41:19;;;;;;;2.33;1.37;;;12.70;99.90;;;;;;4172400;28;20082;-68
2022/05/18 00:43:38;;;;;;;2.23;1.50;;;12.70;99.90;;;;;;4171411;28;20611;-68
2022/05/18 00:45:39;;;;;;;1.50;1.40;;;12.70;99.90;;;;;;4171458;28;20021;-68
2022/05/18 00:47:41;;;;;;;2.90;1.43;;;12.70;99.90;;;;;;4172324;28;20033;-73
2022/05/18 00:49:47;;;;;;;6.53;1.40;;;12.60;99.90;;;;;;4172655;28;20041;-68
2022/05/18 00:51:53;;;;;;;4.87;1.60;;;12.70;99.90;;;;;;4172072;28;20087;-68
2022/05/18 00:54:02;;;;;;;2.23;1.50;;;12.70;99.90;;;;;;4171463;28;20079;-68
2022/05/18 00:56:08;;;;;;;2.23;1.50;;;12.60;99.90;;;;;;4171779;28;20032;-68
2022/05/18 00:58:12;;;;;;;2.57;1.83;;;12.70;99.90;;;;;;4171865;28;20028;-68
2022/05/18 01:00:16;;;;;;;4.33;1.90;;;12.70;99.90;;;;;;4170197;28;20242;-69
2022/05/18 01:02:18;;;;;;;3.30;1.57;;;12.70;99.90;;;;;;4172539;28;20033;-68
2022/05/18 01:04:19;;;;;;;1.77;1.50;;;12.70;99.90;;;;;;4172013;28;20086;-68
2022/05/18 01:06:34;;;;;;;4.30;1.80;;;12.70;99.90;;;;;;4174032;28;20461;-68
2022/05/18 01:08:49;;;;;;;3.43;1.20;;;12.60;99.90;;;;;;4174759;28;20094;-68
2022/05/18 01:10:50;;;;;;;2.50;1.40;;;12.70;99.90;;;;;;4175809;28;20534;-68
2022/05/18 01:12:51;;;;;;;3.80;1.40;;;12.60;99.90;;;;;;4174716;28;20017;-68
2022/05/18 01:15:03;;;;;;;5.27;1.70;;;12.60;99.90;;;;;;4176095;28;20029;-68
2022/05/18 01:17:06;;;;;;;2.20;1.20;;;12.50;99.90;;;;;;4156851;28;20046;-68
2022/05/18 01:19:18;;;;;;;2.83;1.53;;;12.50;99.90;;;;;;4175534;28;20045;-69
2022/05/18 01:21:20;;;;;;;2.37;1.47;;;12.50;99.90;;;;;;4174244;28;20067;-68
2022/05/18 01:23:38;;;;;;;1.47;1.33;;;12.50;99.90;;;;;;4175826;28;20496;-69
2022/05/18 01:25:45;;;;;;;2.43;1.20;;;12.50;99.90;;;;;;4173032;28;20087;-68
2022/05/18 01:27:46;;;;;;;1.97;1.37;;;12.40;99.90;;;;;;4175879;28;20025;-68
2022/05/18 01:29:48;;;;;;;2.33;1.87;;;12.40;99.90;;;;;;4174140;28;20530;-69
2022/05/18 01:31:56;;;;;;;1.97;1.20;;;12.40;99.90;;;;;;4175610;28;20029;-69
2022/05/18 01:34:00;;;;;;;1.57;1.17;;;12.40;99.90;;;;;;4174846;28;20041;-68
2022/05/18 01:36:02;;;;;;;2.80;1.80;;;12.30;99.90;;;;;;4175241;28;20041;-70
2022/05/18 01:38:06;;;;;;;5.77;1.37;;;12.40;99.90;;;;;;4174303;28;20041;-69
2022/05/18 01:40:19;;;;;;;3.37;1.70;;;12.40;99.90;;;;;;4174819;28;20493;-69
2022/05/18 01:42:45;;;;;;;3.30;1.50;;;12.30;99.90;;;;;;4173387;28;20130;-68
2022/05/18 01:44:46;;;;;;;2.40;1.63;;;12.40;99.90;;;;;;4174744;28;20040;-70
2022/05/18 01:46:48;;;;;;;2.77;2.10;;;12.30;99.90;;;;;;4174340;28;20093;-67
2022/05/18 01:48:51;;;;;;;7.93;1.90;;;12.30;99.90;;;;;;4175239;28;20037;-68
2022/05/18 01:50:53;;;;;;;9.83;2.40;;;12.30;99.90;;;;;;4174851;28;20098;-68
2022/05/18 01:52:54;;;;;;;2.80;2.00;;;12.30;99.90;;;;;;4174944;28;20425;-69
2022/05/18 01:54:55;;;;;;;3.17;2.17;;;12.30;99.90;;;;;;4174458;28;20094;-69
2022/05/18 01:56:57;;;;;;;2.33;2.00;;;12.30;99.90;;;;;;4174584;28;20091;-69
2022/05/18 01:58:59;;;;;;;5.17;2.47;;;12.30;99.90;;;;;;4174590;28;20099;-68
2022/05/18 02:01:02;;;;;;;2.53;2.20;;;12.30;99.90;;;;;;4174174;28;20461;-69
2022/05/18 02:03:04;;;;;;;4.43;2.47;;;12.30;99.90;;;;;;4175199;28;20094;-68
2022/05/18 02:05:05;;;;;;;3.47;2.87;;;12.30;99.90;;;;;;4174137;28;20032;-68
2022/05/18 02:07:07;;;;;;;2.83;2.30;;;12.30;99.90;;;;;;4174697;28;20041;-69
2022/05/18 02:09:08;;;;;;;2.57;2.17;;;12.30;99.90;;;;;;4173366;28;20898;-68
2022/05/18 02:11:14;;;;;;;3.83;2.77;;;12.30;99.90;;;;;;4175299;28;20060;-69
2022/05/18 02:13:16;;;;;;;3.40;2.37;;;12.30;99.90;;;;;;4174039;28;20037;-69
2022/05/18 02:15:17;;;;;;;4.33;3.00;;;12.30;99.90;;;;;;4174502;28;20059;-68
2022/05/18 02:17:18;;;;;;;3.67;2.80;;;12.30;99.90;;;;;;4173217;28;20094;-69
2022/05/18 02:19:20;;;;;;;4.53;3.03;;;12.20;99.90;;;;;;4174784;28;20040;-68
2022/05/18 02:21:21;;;;;;;4.07;3.23;;;12.20;99.90;;;;;;4174320;28;20432;-69
2022/05/18 02:23:22;;;;;;;6.80;4.53;;;12.20;99.90;;;;;;4173992;28;20029;-68
2022/05/18 02:25:24;;;;;;;4.63;3.27;;;12.20;99.90;;;;;;4174261;28;20114;-69
2022/05/18 02:27:25;;;;;;;4.23;3.20;;;12.20;99.90;;;;;;4174371;28;20099;-68
2022/05/18 02:29:26;;;;;;;3.70;3.40;;;12.20;99.90;;;;;;4173602;28;20071;-69
2022/05/18 02:31:28;;;;;;;5.17;3.20;;;12.20;99.90;;;;;;4173136;28;20036;-69
2022/05/18 02:33:29;;;;;;;3.80;3.40;;;12.20;99.90;;;;;;4174211;28;20029;-69
2022/05/18 02:35:30;;;;;;;4.37;3.60;;;12.20;99.90;;;;;;4173734;28;20045;-69
2022/05/18 02:37:35;;;;;;;10.80;4.60;;;12.20;99.90;;;;;;4174584;28;20025;-69
2022/05/18 02:39:36;;;;;;;6.70;6.03;;;12.20;99.90;;;;;;4173024;28;20048;-69
2022/05/18 02:41:37;;;;;;;9.30;8.40;;;12.20;99.90;;;;;;4174392;28;20102;-69
2022/05/18 02:43:39;;;;;;;9.93;8.53;;;12.20;99.90;;;;;;4173416;28;20044;-70
2022/05/18 02:45:40;;;;;;;7.43;6.73;;;12.20;99.90;;;;;;4174108;28;20067;-69
2022/05/18 02:47:41;;;;;;;4.37;3.03;;;12.30;99.90;;;;;;4173694;28;20040;-69
2022/05/18 02:49:42;;;;;;;4.97;2.60;;;12.20;99.90;;;;;;4174146;28;20478;-68
2022/05/18 02:51:43;;;;;;;5.33;3.47;;;12.30;99.90;;;;;;4172607;28;20048;-69
2022/05/18 02:53:44;;;;;;;6.63;3.77;;;12.30;99.90;;;;;;4174093;28;20041;-69
2022/05/18 02:58:06;;;;;;;4.95;3.50;;;12.40;99.90;;;;;;4174483;28;20040;-69
2022/05/18 03:00:08;;;;;;;11.00;3.73;;;12.40;99.90;;;;;;4173467;28;20118;-69
2022/05/18 03:02:09;;;;;;;4.07;2.93;;;12.50;99.90;;;;;;4173906;28;20170;-71
2022/05/18 03:04:10;;;;;;;5.60;3.03;;;12.50;99.90;;;;;;4173590;28;20388;-69
2022/05/18 03:06:14;;;;;;;7.00;3.27;;;12.60;99.90;;;;;;4173142;28;20037;-68
2022/05/18 03:08:15;;;;;;;4.73;2.43;;;12.70;99.90;;;;;;4173810;28;20087;-68
2022/05/18 03:10:18;;;;;;;4.93;2.23;;;12.80;99.90;;;;;;4171429;28;20033;-69
2022/05/18 03:12:20;;;;;;;2.53;1.70;;;12.70;99.90;;;;;;4173548;28;20048;-69
2022/05/18 03:14:22;;;;;;;7.97;2.97;;;12.80;99.90;;;;;;4172904;28;20020;-69
2022/05/18 03:16:25;;;;;;;4.60;2.00;;;12.90;99.90;;;;;;4173196;28;20041;-74
2022/05/18 03:18:27;;;;;;;8.40;2.30;;;13.00;99.90;;;;;;4172558;28;20071;-68
2022/05/18 03:25:07;;;;;;;4.27;2.00;;;13.20;99.90;;;;;;4173419;28;20370;-68
2022/05/18 03:27:10;;;;;;;5.90;2.77;;;13.10;99.90;;;;;;4171951;28;20386;-69
2022/05/18 03:29:12;;;;;;;2.77;2.23;;;13.30;99.90;;;;;;4172966;28;20082;-68
2022/05/18 03:31:14;;;;;;;6.00;2.53;;;13.50;99.90;;;;;;4172205;28;20102;-69
2022/05/18 03:33:16;;;;;;;2.33;1.80;;;13.20;99.90;;;;;;4173293;28;20041;-68
2022/05/18 03:35:19;;;;;;;3.27;2.00;;;13.10;99.90;;;;;;4172437;28;20055;-70
2022/05/18 03:37:20;;;;;;;5.43;2.07;;;12.80;99.90;;;;;;4173536;28;20107;-69
2022/05/18 03:39:21;;;;;;;5.60;1.80;;;12.80;99.90;;;;;;4171946;28;20374;-68
2022/05/18 03:41:22;;;;;;;5.53;2.20;;;12.60;99.90;;;;;;4161873;28;20049;-68
2022/05/18 03:43:24;;;;;;;6.40;1.60;;;12.40;99.90;;;;;;4156255;28;20037;-68
2022/05/18 03:45:26;;;;;;;3.70;2.07;;;12.30;99.90;;;;;;4158810;28;20037;-68
2022/05/18 03:47:27;;;;;;;4.17;1.90;;;12.30;99.90;;;;;;4172428;28;20637;-69
2022/05/18 03:49:28;;;;;;;5.27;2.43;;;12.20;99.90;;;;;;4172532;28;20469;-67
2022/05/18 03:51:30;;;;;;;4.17;1.70;;;12.10;99.90;;;;;;4172024;28;20041;-67
2022/05/18 03:53:32;;;;;;;5.13;1.80;;;12.10;99.90;;;;;;4169539;28;20040;-68
2022/05/18 03:55:33;;;;;;;3.63;2.00;;;12.10;99.90;;;;;;4172392;28;20477;-68
2022/05/18 03:57:35;;;;;;;6.60;2.60;;;12.40;99.90;;;;;;4172330;28;20458;-67
2022/05/18 03:59:36;;;;;;;6.43;2.20;;;12.70;99.90;;;;;;4172854;28;20041;-67
2022/05/18 04:01:37;;;;;;;5.57;2.00;;;12.70;99.90;;;;;;4171186;28;20112;-68
2022/05/18 04:03:41;;;;;;;6.77;1.63;;;13.20;99.90;;;;;;4173467;28;20087;-69
2022/05/18 04:05:43;;;;;;;3.40;1.60;;;13.50;99.90;;;;;;4171877;28;20098;-69
2022/05/18 04:07:44;;;;;;;3.10;1.63;;;13.90;99.90;;;;;;4172944;28;20095;-69
2022/05/18 04:09:47;;;;;;;5.13;2.10;;;14.40;99.90;;;;;;4171792;28;20020;-68
2022/05/18 04:11:48;;;;;;;7.07;1.90;;;14.60;99.90;;;;;;4172418;28;20061;-70
2022/05/18 04:13:50;;;;;;;9.47;1.83;;;14.90;99.90;;;;;;4171238;28;20036;-68
2022/05/18 04:15:53;;;;;;;4.17;2.57;;;14.70;99.90;;;;;;4172326;28;20037;-68
2022/05/18 04:17:55;;;;;;;5.33;2.20;;;14.30;99.90;;;;;;4172032;28;20083;-67
2022/05/18 04:19:56;;;;;;;6.27;1.80;;;14.40;99.90;;;;;;4171954;28;20117;-68
2022/05/18 04:21:57;;;;;;;12.53;2.43;;;14.70;99.90;;;;;;4171944;28;20669;-68
2022/05/18 04:23:59;;;;;;;2.37;1.13;;;15.30;99.90;;;;;;4171793;28;20029;-68
2022/05/18 04:26:00;;;;;;;3.43;1.50;;;15.80;99.90;;;;;;4172008;28;20037;-68
2022/05/18 04:28:01;;;;;;;4.43;1.60;;;16.10;99.90;;;;;;4165407;28;20055;-68
2022/05/18 04:30:04;;;;;;;8.90;1.98;;;16.20;99.90;;;;;;4163817;28;20382;-67
2022/05/18 04:32:06;;;;;;;6.63;1.17;;;16.30;99.90;;;;;;4171585;28;20049;-67
2022/05/18 04:34:07;;;;;;;7.93;1.73;;;16.40;99.90;;;;;;4172843;28;20037;-65
2022/05/18 04:36:08;;;;;;;10.57;2.03;;;16.80;99.90;;;;;;4171355;28;20033;-66
2022/05/18 04:38:10;;;;;;;4.45;1.60;;;17.10;99.90;;;;;;4172155;28;20037;-66
2022/05/18 04:40:11;;;;;;;6.55;1.90;;;17.10;99.90;;;;;;4170522;28;20045;-66
2022/05/18 04:42:14;;;;;;;11.82;1.83;;;17.20;99.90;;;;;;4171291;28;20382;-67
2022/05/18 04:44:15;;;;;;;6.65;1.30;;;17.50;99.90;;;;;;4171190;28;20036;-67
2022/05/18 04:46:16;;;;;;;9.77;1.50;;;17.20;99.90;;;;;;4172003;28;20029;-66
2022/05/18 04:48:20;;;;;;;10.00;1.75;;;17.30;99.90;;;;;;4171634;28;20025;-66
2022/05/18 04:50:21;;;;;;;6.50;1.25;;;17.40;99.90;;;;;;4170353;28;20029;-66
2022/05/18 04:52:22;;;;;;;6.05;1.58;;;17.10;99.90;;;;;;4173325;28;20052;-67
2022/05/18 04:54:23;;;;;;;8.57;2.90;;;16.90;99.90;;;;;;4179264;28;20070;-72
2022/05/18 04:56:25;;;;;;;7.20;1.50;;;16.40;99.90;;;;;;4174971;28;20029;-69
2022/05/18 04:58:26;;;;;;;4.65;1.20;;;16.30;99.90;;;;;;4171147;28;20041;-66
2022/05/18 05:00:27;;;;;;;5.13;1.23;;;16.40;99.90;;;;;;4179629;28;20101;-68
2022/05/18 05:02:28;;;;;;;7.55;2.63;;;16.40;99.90;;;;;;4186661;28;20499;-67
2022/05/18 05:04:29;;;;;;;8.02;1.27;;;16.20;99.90;;;;;;4189234;28;20427;-67
2022/05/18 05:06:31;;;;;;;2.58;1.00;;;16.30;99.90;;;;;;4187805;28;20021;-67
2022/05/18 05:08:34;;;;;;;4.00;0.90;;;16.50;99.90;;;;;;4188416;28;20032;-67
2022/05/18 05:10:35;;;;;;;5.75;1.42;;;16.20;99.90;;;;;;4187613;28;20041;-67
2022/05/18 05:12:37;;;;;;;6.78;2.38;;;16.00;99.90;;;;;;4188333;28;20476;-67
2022/05/18 05:14:39;;;;;;;7.03;1.40;;;15.20;99.90;;;;;;4187745;28;20484;-67
2022/05/18 05:16:41;;;;;;;3.13;1.25;;;14.70;99.90;;;;;;4186496;28;20048;-68
2022/05/18 05:18:42;;;;;;;6.57;1.10;;;14.50;99.90;;;;;;4187659;28;20047;-68
2022/05/18 05:20:43;;;;;;;8.25;1.35;;;14.50;99.90;;;;;;4188125;28;20098;-68
2022/05/18 05:22:44;;;;;;;3.63;1.45;;;14.80;99.90;;;;;;4187554;28;20070;-67
2022/05/18 05:24:46;;;;;;;5.32;0.80;;;14.80;99.90;;;;;;4187398;28;20048;-68
2022/05/18 05:26:49;;;;;;;5.25;0.80;;;15.30;99.90;;;;;;4185628;28;20157;-69
2022/05/18 05:28:50;;;;;;;3.50;0.90;;;15.50;99.90;;;;;;4174117;28;20576;-68
2022/05/18 05:30:53;;;;;;;5.00;0.88;;;15.70;99.90;;;;;;4180460;28;20428;-76
2022/05/18 05:32:54;;;;;;;4.18;0.90;;;16.00;99.90;;;;;;4159636;28;20048;-67
2022/05/18 05:34:55;;;;;;;5.20;1.20;;;16.10;99.90;;;;;;4170962;28;20037;-67
2022/05/18 05:36:57;;;;;;;5.07;0.90;;;16.00;99.90;;;;;;4168382;28;20041;-68
2022/05/18 05:38:58;;;;;;;7.30;1.17;;;15.80;99.90;;;;;;4172039;28;20102;-67
2022/05/18 05:41:00;;;;;;;3.35;1.02;;;15.70;99.90;;;;;;4168639;28;20040;-67
2022/05/18 05:43:06;;;;;;;6.50;1.30;;;15.60;99.20;;;;;;4155574;28;20362;-68
2022/05/18 05:45:08;;;;;;;7.72;0.98;;;15.70;99.20;;;;;;4154490;28;20959;-66
2022/05/18 05:47:11;;;;;;;13.43;1.05;;;16.00;98.30;;;;;;4154998;28;20038;-67
2022/05/18 05:49:13;;;;;;;7.60;0.77;;;15.80;97.60;;;;;;4152977;28;20083;-67
2022/05/18 05:51:16;;;;;;;4.32;0.60;;;15.60;95.90;;;;;;4155276;28;20041;-69
2022/05/18 05:53:17;;;;;;;3.35;0.88;;;15.40;95.40;;;;;;4157273;28;20088;-67
2022/05/18 05:55:18;;;;;;;7.15;0.90;;;15.20;96.90;;;;;;4165379;28;20032;-67
2022/05/18 05:57:19;;;;;;;12.38;0.90;;;15.10;96.50;;;;;;4180776;28;20037;-68
2022/05/18 05:59:21;;;;;;;2.13;0.43;;;15.00;96.50;;;;;;4175099;28;20547;-67
2022/05/18 06:01:22;;;;;;;7.80;1.03;;;14.90;96.30;;;;;;4174133;28;20037;-66
2022/05/18 06:03:25;;;;;;;1.77;0.63;;;14.90;95.20;;;;;;4174128;28;20416;-68
2022/05/18 06:05:28;;;;;;;2.63;0.73;;;15.10;95.40;;;;;;4174671;28;20311;-67
2022/05/18 06:07:32;;;;;;;2.43;0.77;;;15.10;93.80;;;;;;4173967;28;20028;-63
2022/05/18 06:09:34;;;;;;;4.57;0.70;;;14.90;92.00;;;;;;4189240;28;20048;-66
2022/05/18 06:11:36;;;;;;;7.25;1.25;;;15.00;93.30;;;;;;4189793;28;20040;-66
2022/05/18 06:13:38;;;;;;;3.10;0.70;;;15.10;93.70;;;;;;4191733;28;20104;-67
2022/05/18 06:15:39;;;;;;;4.95;0.88;;;15.30;91.90;;;;;;4188386;28;20501;-67
2022/05/18 06:17:40;;;;;;;3.43;0.67;;;14.90;91.20;;;;;;4190938;28;20114;-66
2022/05/18 06:19:41;;;;;;;2.33;1.00;;;14.80;90.50;;;;;;4177475;28;20036;-66
2022/05/18 06:21:43;;;;;;;9.23;1.30;;;14.80;90.60;;;;;;4174746;28;20083;-66
2022/05/18 06:23:44;;;;;;;3.30;0.80;;;15.10;91.00;;;;;;4173916;28;20025;-67
2022/05/18 06:25:46;;;;;;;6.37;1.67;;;14.80;88.10;;;;;;4174750;28;20472;-66
2022/05/18 06:27:47;;;;;;;5.30;1.23;;;14.80;90.10;;;;;;4173849;28;20904;-67
2022/05/18 06:29:49;;;;;;;4.93;1.00;;;14.60;88.40;;;;;;4174526;28;20035;-66
2022/05/18 06:31:50;;;;;;;6.23;1.87;;;14.90;90.60;;;;;;4173038;28;20025;-65
2022/05/18 06:33:51;;;;;;;5.50;0.90;;;15.00;90.10;;;;;;4171862;28;20045;-63
2022/05/18 06:35:52;;;;;;;2.85;0.82;;;15.00;88.00;;;;;;4174145;28;20025;-66
2022/05/18 06:37:53;;;;;;;11.90;1.23;;;14.90;87.00;;;;;;4173988;28;20090;-65
2022/05/18 06:39:54;;;;;;;1.05;0.60;;;14.90;86.30;;;;;;4174654;28;20033;-66
2022/05/18 06:41:58;;;;;;;2.57;0.53;;;14.90;84.80;;;;;;4188143;28;20113;-66
2022/05/18 06:44:02;;;;;;;5.00;0.73;;;14.90;81.70;;;;;;4190667;28;20025;-67
2022/05/18 06:46:03;;;;;;;1.40;0.67;;;14.90;82.50;;;;;;4183175;28;20098;-65
2022/05/18 06:48:05;;;;;;;3.60;1.00;;;15.00;81.70;;;;;;4186036;28;20098;-66
2022/05/18 06:50:09;;;;;;;3.07;0.50;;;15.10;82.60;;;;;;4179524;28;20040;-65
2022/05/18 06:52:11;;;;;;;1.83;0.57;;;15.00;83.20;;;;;;4173853;28;20029;-68
2022/05/18 06:54:14;;;;;;;3.70;0.83;;;14.80;83.20;;;;;;4177948;28;20032;-64
2022/05/18 06:56:15;;;;;;;1.23;0.30;;;14.90;84.70;;;;;;4172319;28;20033;-65
2022/05/18 06:58:19;;;;;;;4.00;0.93;;;14.80;79.20;;;;;;4174378;28;20097;-65
2022/05/18 07:00:20;;;;;;;8.93;0.73;;;14.80;80.20;;;;;;4172127;28;20621;-62
2022/05/18 07:02:22;;;;;;;4.07;0.73;;;14.80;79.50;;;;;;4180133;28;20145;-65
2022/05/18 07:04:23;;;;;;;9.10;0.83;;;14.60;80.80;;;;;;4174304;28;20059;-69
2022/05/18 07:06:26;;;;;;;7.67;0.60;;;14.50;80.40;;;;;;4177713;28;20041;-67
2022/05/18 07:08:29;;;;;;;3.57;0.87;;;14.30;80.80;;;;;;4178221;28;20036;-66
2022/05/18 07:10:30;;;;;;;5.20;0.47;;;14.20;81.60;;;;;;4176848;28;20086;-64
2022/05/18 07:12:32;;;;;;;3.50;0.70;;;14.00;82.10;;;;;;4174239;28;20044;-65
2022/05/18 07:14:33;;;;;;;4.70;1.00;;;14.00;83.40;;;;;;4175379;28;20129;-65
2022/05/18 07:16:35;;;;;;;6.50;1.03;;;14.10;83.40;;;;;;4171924;28;20134;-65
2022/05/18 07:18:36;;;;;;;6.07;0.70;;;14.30;83.30;;;;;;4173873;28;20022;-67
2022/05/18 07:20:38;;;;;;;2.93;0.80;;;14.50;82.20;;;;;;4173045;28;20554;-65
2022/05/18 07:22:39;;;;;;;5.70;0.70;;;14.50;80.70;;;;;;4174124;28;20040;-66
2022/05/18 07:24:40;;;;;;;2.40;0.57;;;14.70;81.90;;;;;;4172876;28;20102;-65
2022/05/18 07:26:43;;;;;;;2.20;0.43;;;14.80;80.20;;;;;;4176458;28;20178;-67
2022/05/18 07:28:45;;;;;;;6.30;0.80;;;14.60;80.50;;;;;;4176528;28;20083;-65
2022/05/18 07:30:46;;;;;;;14.07;1.13;;;14.60;78.30;;;;;;4177043;28;20495;-67
2022/05/18 07:32:47;;;;;;;8.27;1.23;;;14.70;80.20;;;;;;4178418;28;20029;-67
2022/05/18 07:34:48;;;;;;;7.30;1.50;;;14.90;79.30;;;;;;4178990;28;20028;-65
2022/05/18 07:36:52;;;;;;;4.27;1.00;;;15.10;80.00;;;;;;4177717;28;20533;-65
2022/05/18 07:38:53;;;;;;;6.80;0.93;;;15.40;79.40;;;;;;4174539;28;20416;-68
2022/05/18 07:40:55;;;;;;;3.78;0.98;;;15.20;76.60;;;;;;4178205;28;20070;-66
2022/05/18 07:42:57;;;;;;;3.00;0.80;;;15.00;77.40;;;;;;4172865;28;20082;-68
2022/05/18 07:44:58;;;;;;;10.07;1.77;;;15.00;77.20;;;;;;4176089;28;20086;-67
2022/05/18 07:47:02;;;;;;;3.17;0.60;;;15.00;77.90;;;;;;4175831;28;20049;-66
2022/05/18 07:49:04;;;;;;;4.93;0.70;;;15.30;77.00;;;;;;4179825;28;20098;-66
2022/05/18 07:51:06;;;;;;;5.13;1.10;;;15.30;77.10;;;;;;4177289;28;20037;-66
2022/05/18 07:53:07;;;;;;;5.60;1.37;;;15.30;77.90;;;;;;4180804;28;20099;-65
2022/05/18 07:55:08;;;;;;;4.60;0.90;;;15.60;77.90;;;;;;4170534;28;20040;-65
2022/05/18 07:57:10;;;;;;;4.00;1.23;;;15.40;75.90;;;;;;4172094;28;20107;-65
2022/05/18 07:59:11;;;;;;;5.55;1.17;;;15.40;74.30;;;;;;4172218;28;20362;-67
2022/05/18 08:01:13;;;;;;;3.13;0.63;;;15.40;75.70;;;;;;4173434;28;20501;-65
2022/05/18 08:03:15;;;;;;;10.27;1.17;;;15.30;73.80;;;;;;4186212;28;20028;-66
2022/05/18 08:05:17;;;;;;;5.47;0.68;;;15.10;73.40;;;;;;4184829;28;20029;-67
2022/05/18 08:07:18;;;;;;;1.65;0.68;;;15.10;74.30;;;;;;4172765;28;20469;-66
2022/05/18 08:09:22;;;;;;;2.58;0.80;;;14.80;72.90;;;;;;4172877;28;20485;-66
2022/05/18 08:16:03;;;;;;;6.78;0.70;;;15.00;72.50;;;;;;4173845;28;20029;-66
2022/05/18 08:18:05;;;;;;;5.63;0.60;;;15.10;73.30;;;;;;4172444;28;20075;-67
2022/05/18 08:20:08;;;;;;;3.80;0.60;;;15.10;72.30;;;;;;4171593;28;20177;-66
2022/05/18 08:22:09;;;;;;;5.38;0.68;;;15.00;71.20;;;;;;4171538;28;20110;-66
2022/05/18 08:24:11;;;;;;;3.85;0.80;;;15.10;72.70;;;;;;4172277;28;20021;-66
2022/05/18 08:26:12;;;;;;;3.42;0.63;;;15.30;71.90;;;;;;4170916;28;20041;-67
2022/05/18 08:28:15;;;;;;;6.27;0.90;;;15.00;70.70;;;;;;4184981;28;20111;-65
2022/05/18 08:30:20;;;;;;;5.65;1.80;;;15.00;71.10;;;;;;4186584;28;20488;-66
2022/05/18 08:32:21;;;;;;;3.90;0.40;;;15.20;70.70;;;;;;4172562;28;20021;-64
2022/05/18 08:34:22;;;;;;;4.50;0.60;;;15.00;70.70;;;;;;4172785;28;20029;-67
2022/05/18 08:36:25;;;;;;;3.42;0.57;;;15.10;72.00;;;;;;4189431;28;20073;-66
2022/05/18 08:38:26;;;;;;;3.42;0.60;;;15.20;72.20;;;;;;4188019;28;20520;-65
2022/05/18 08:40:33;;;;;;;4.38;0.30;;;15.30;72.00;;;;;;4179167;28;20793;-66
2022/05/18 08:42:35;;;;;;;2.22;0.38;;;15.00;69.30;;;;;;4171516;28;20045;-66
2022/05/18 08:44:36;;;;;;;2.50;0.52;;;14.80;71.70;;;;;;4172650;28;20037;-66
2022/05/18 08:46:52;;;;;;;2.05;0.45;;;14.80;70.20;;;;;;4171248;28;20040;-67
2022/05/18 08:49:10;;;;;;;2.40;0.88;;;14.70;70.30;;;;;;4158350;28;20041;-66
2022/05/18 08:51:45;;;;;;;1.73;0.60;;;14.70;70.70;;;;;;4171384;28;20099;-66
2022/05/18 08:54:00;;;;;;;6.05;0.80;;;14.80;68.40;;;;;;4158755;28;20053;-67
2022/05/18 08:56:11;;;;;;;0.52;0.20;;;14.90;67.50;;;;;;4171310;28;20037;-67
2022/05/18 08:58:21;;;;;;;6.68;1.77;;;14.70;68.50;;;;;;4171866;28;20091;-65
2022/05/18 09:00:35;;;;;;;8.57;0.85;;;14.80;69.60;;;;;;4171768;28;20056;-65
2022/05/18 09:02:41;;;;;;;2.60;0.50;;;14.90;69.50;;;;;;4172174;28;20754;-64
2022/05/18 09:04:49;;;;;;;4.60;0.70;;;14.90;68.10;;;;;;4170999;28;20431;-66
2022/05/18 09:06:59;;;;;;;1.83;0.20;;;14.90;70.00;;;;;;4172982;28;20048;-64
2022/05/18 09:11:46;;;;;;;2.70;0.40;;;14.70;68.90;;;;;;4161248;28;20045;-67
2022/05/18 09:13:48;;;;;;;4.40;0.47;;;15.00;69.50;;;;;;4171146;28;20074;-64
2022/05/18 09:16:01;;;;;;;2.47;0.50;;;15.00;66.10;;;;;;4171511;28;20063;-63
2022/05/18 09:18:12;;;;;;;5.15;0.90;;;14.80;65.30;;;;;;4180268;28;20052;-64
2022/05/18 09:20:45;;;;;;;1.60;0.70;;;14.70;65.80;;;;;;4188003;28;20032;-64
2022/05/18 09:23:02;;;;;;;2.47;0.70;;;14.50;64.00;;;;;;4188221;28;20036;-65
2022/05/18 09:25:12;;;;;;;5.00;0.70;;;14.40;63.10;;;;;;4187710;28;20649;-64
2022/05/18 09:27:25;;;;;;;4.00;0.40;;;14.40;66.50;;;;;;4186445;28;20834;-64
2022/05/18 09:29:55;;;;;;;0.88;0.40;;;14.70;67.30;;;;;;4190907;28;20059;-65
2022/05/18 09:32:23;;;;;;;1.55;0.45;;;14.70;64.30;;;;;;4161186;28;20075;-67
2022/05/18 09:34:37;;;;;;;4.63;0.80;;;14.60;64.70;;;;;;4190583;28;20028;-67
2022/05/18 09:37:00;;;;;;;5.53;0.50;;;14.70;65.50;;;;;;4192206;28;20098;-67
2022/05/18 09:39:08;;;;;;;2.43;0.70;;;14.90;65.50;;;;;;4189199;28;20087;-67
2022/05/18 09:41:15;;;;;;;5.37;0.33;;;15.00;65.90;;;;;;4175422;28;20498;-64
2022/05/18 09:43:53;;;;;;;3.63;0.40;;;14.90;64.50;;;;;;4174627;28;20078;-65
2022/05/18 09:45:57;;;;;;;7.03;0.70;;;14.80;65.30;;;;;;4178092;28;20123;-66
2022/05/18 09:48:05;;;;;;;2.20;0.73;;;14.90;66.90;;;;;;4173087;28;20029;-67
2022/05/18 09:50:08;;;;;;;2.08;0.20;;;15.20;64.90;;;;;;4174914;28;20099;-64
2022/05/18 09:52:10;;;;;;;2.10;0.50;;;15.00;64.20;;;;;;4174045;28;20037;-66
2022/05/18 09:54:12;;;;;;;2.17;0.43;;;14.80;62.60;;;;;;4174838;28;20588;-64
2022/05/18 09:56:21;;;;;;;0.82;0.17;;;14.80;62.60;;;;;;4173171;28;20568;-64
2022/05/18 09:58:32;;;;;;;4.27;0.40;;;14.80;62.80;;;;;;4174680;28;20029;-64
2022/05/18 10:00:36;;;;;;;0.60;0.30;;;15.00;61.20;;;;;;4174331;28;20033;-64
2022/05/18 10:07:30;;;;;;;2.67;0.43;;;14.90;60.80;;;;;;4175441;28;20130;-65
2022/05/18 10:09:40;;;;;;;0.85;0.40;;;14.90;62.00;;;;;;4173460;28;20441;-65
2022/05/18 10:11:42;;;;;;;1.90;0.28;;;14.90;61.80;;;;;;4190502;28;20036;-63
2022/05/18 10:14:00;;;;;;;0.33;0.10;;;14.70;60.70;;;;;;4182544;28;20877;-64
2022/05/18 10:16:14;;;;;;;3.10;0.30;;;14.70;60.70;;;;;;4191180;28;20024;-65
2022/05/18 10:18:25;;;;;;;3.35;0.50;;;14.90;59.70;;;;;;4189517;28;20070;-64
2022/05/18 10:20:30;;;;;;;3.95;0.50;;;15.00;59.30;;;;;;4189529;28;20087;-65
2022/05/18 10:22:39;;;;;;;1.50;0.67;;;14.80;58.00;;;;;;4157532;28;20049;-66
2022/05/18 10:25:08;;;;;;;1.40;0.13;;;14.80;57.30;;;;;;4158266;28;20031;-63
2022/05/18 10:27:18;;;;;;;4.57;0.73;;;14.60;58.30;;;;;;4157332;28;20433;-66
2022/05/18 10:29:23;;;;;;;3.33;0.20;;;14.60;59.30;;;;;;4156869;28;20087;-64
2022/05/18 10:32:03;;;;;;;4.63;0.55;;;14.70;59.50;;;;;;4157177;28;20068;-62
2022/05/18 10:34:25;;;;;;;1.75;0.20;;;14.80;63.10;;;;;;4121917;28;20085;-65
2022/05/18 10:36:28;;;;;;;3.63;0.33;;;14.90;62.20;;;;;;4155546;28;20089;-66
2022/05/18 10:38:34;;;;;;;2.50;0.40;;;15.00;63.20;;;;;;4177229;28;20033;-65
2022/05/18 10:40:35;;;;;;;1.23;0.30;;;15.20;63.70;;;;;;4176071;28;20048;-64
2022/05/18 10:42:48;;;;;;;2.40;0.47;;;15.30;62.20;;;;;;4174030;28;20041;-66
2022/05/18 10:44:50;;;;;;;0.70;0.25;;;15.20;61.50;;;;;;4173263;28;20071;-65
2022/05/18 10:46:52;;;;;;;4.15;0.40;;;15.10;60.50;;;;;;4173082;28;20032;-63
2022/05/18 10:49:00;;;;;;;8.67;0.40;;;14.80;61.40;;;;;;4172876;28;20087;-64
2022/05/18 10:51:08;;;;;;;2.60;0.47;;;14.90;62.60;;;;;;4174171;28;20033;-64
2022/05/18 10:53:12;;;;;;;2.60;0.20;;;15.00;62.20;;;;;;4173202;28;20126;-65
2022/05/18 10:55:17;;;;;;;0.43;0.22;;;15.20;63.20;;;;;;4173992;28;20369;-65
2022/05/18 10:57:21;;;;;;;1.42;0.65;;;15.40;63.70;;;;;;4173178;28;20033;-64
2022/05/18 10:59:43;;;;;;;3.47;1.00;;;15.30;60.20;;;;;;4174198;28;20024;-65
2022/05/18 11:02:16;;;;;;;1.50;0.40;;;15.20;60.10;;;;;;4155752;28;20551;-64
2022/05/18 11:04:54;;;;;;;2.97;0.30;;;15.20;59.90;;;;;;4148639;28;20260;-64